createdAt,value
2022-09-22T21:31:02.526Z,65.91
2022-09-22T21:32:02.472Z,65.82
2022-09-22T21:33:02.503Z,65.63
2022-09-22T21:34:02.531Z,65.63
2022-09-22T21:35:02.560Z,65.43
2022-09-22T21:36:02.589Z,65.63
2022-09-22T21:37:02.872Z,65.56
2022-09-22T21:38:02.651Z,66.40
2022-09-22T21:39:02.678Z,66.30
2022-09-22T21:40:02.773Z,66.59
2022-09-22T21:41:02.765Z,67.36
2022-09-22T21:42:02.770Z,67.65
2022-09-22T21:43:03.100Z,68.13
2022-09-22T21:44:02.828Z,68.33
2022-09-22T21:45:02.862Z,69.00
2022-09-22T21:46:05.355Z,69.29
2022-09-22T21:47:03.053Z,69.78
2022-09-22T21:48:02.952Z,70.06
2022-09-22T21:49:03.233Z,70.36
2022-09-22T21:50:03.024Z,70.74
2022-09-22T21:51:03.046Z,70.48
2022-09-22T21:52:03.096Z,70.48
2022-09-22T21:53:03.103Z,70.16
2022-09-22T21:54:03.130Z,70.20
2022-09-22T21:55:03.416Z,69.97
2022-09-22T21:56:03.199Z,70.00
2022-09-22T21:57:03.227Z,69.78
2022-09-22T21:59:03.296Z,70.16
2022-09-22T22:00:03.325Z,69.68
2022-09-22T22:01:03.362Z,69.29
2022-09-22T22:02:03.654Z,69.58
2022-09-22T22:03:03.519Z,69.29
2022-09-22T22:04:03.617Z,69.68
2022-09-22T22:05:03.473Z,69.49
2022-09-22T22:06:03.533Z,68.81
2022-09-22T22:07:03.538Z,69.00
2022-09-22T22:08:03.680Z,69.20
2022-09-22T22:09:03.855Z,68.91
2022-09-22T22:10:03.630Z,68.91
2022-09-22T22:11:03.660Z,68.94
2022-09-22T22:12:03.693Z,68.62
2022-09-22T22:13:03.725Z,68.62
2022-09-22T22:14:03.760Z,68.52
2022-09-22T22:15:03.784Z,68.33
2022-09-22T22:16:04.183Z,68.17
2022-09-22T22:17:03.850Z,68.75
2022-09-22T22:18:03.882Z,68.91
2022-09-22T22:19:03.937Z,68.71
2022-09-22T22:20:03.940Z,68.23
2022-09-22T22:21:03.980Z,68.46
2022-09-22T22:22:04.003Z,68.62
2022-09-22T22:23:04.292Z,68.23
2022-09-22T22:24:04.071Z,69.58
2022-09-22T22:25:04.095Z,69.58
2022-09-22T22:26:04.129Z,70.54
2022-09-22T22:27:04.162Z,71.22
2022-09-22T22:28:04.192Z,71.80
2022-09-22T22:29:04.223Z,72.28
2022-09-22T22:30:04.561Z,72.58
2022-09-22T22:31:04.367Z,72.58
2022-09-22T22:32:04.324Z,72.86
2022-09-22T22:33:04.347Z,73.67
2022-09-22T22:34:04.386Z,73.28
2022-09-22T22:35:04.432Z,74.06
2022-09-22T22:36:04.441Z,73.93
2022-09-22T22:37:04.799Z,73.86
2022-09-22T22:38:04.504Z,73.83
2022-09-22T22:39:04.536Z,74.21
2022-09-22T22:40:04.639Z,73.93
2022-09-22T22:41:04.603Z,74.02
2022-09-22T22:42:04.630Z,74.31
2022-09-22T22:43:04.665Z,73.77
2022-09-22T22:44:05.014Z,73.67
2022-09-22T22:45:04.724Z,73.67
2022-09-22T22:46:04.785Z,73.93
2022-09-22T22:47:04.786Z,73.67
2022-09-22T22:48:04.818Z,73.38
2022-09-22T22:49:04.845Z,73.48
2022-09-22T22:50:04.886Z,73.44
2022-09-22T22:51:07.438Z,73.63
2022-09-22T22:52:04.941Z,72.90
2022-09-22T22:53:04.979Z,73.00
2022-09-22T22:54:05.014Z,73.06
2022-09-22T22:55:05.039Z,73.44
2022-09-22T22:56:05.091Z,72.77
2022-09-22T22:57:05.102Z,72.96
2022-09-22T22:58:05.390Z,72.90
2022-09-22T22:59:05.200Z,72.58
2022-09-22T23:00:05.200Z,72.58
2022-09-22T23:01:05.328Z,72.86
2022-09-22T23:02:05.257Z,72.58
2022-09-22T23:03:05.600Z,72.80
2022-09-22T23:04:05.319Z,72.38
2022-09-22T23:05:05.735Z,72.77
2022-09-22T23:06:05.385Z,72.67
2022-09-22T23:07:05.432Z,72.58
2022-09-22T23:08:05.447Z,72.32
2022-09-22T23:09:05.474Z,72.19
2022-09-22T23:10:05.507Z,72.52
2022-09-22T23:11:05.541Z,72.42
2022-09-22T23:12:05.870Z,72.32
2022-09-22T23:13:05.604Z,72.28
2022-09-22T23:14:05.807Z,72.28
2022-09-22T23:15:05.667Z,71.94
2022-09-22T23:16:05.985Z,71.90
2022-09-22T23:17:05.733Z,71.94
2022-09-22T23:18:05.765Z,71.51
2022-09-22T23:19:06.171Z,72.13
2022-09-22T23:20:05.860Z,72.22
2022-09-22T23:21:05.853Z,72.09
2022-09-22T23:22:05.884Z,71.84
2022-09-22T23:23:05.940Z,71.51
2022-09-22T23:24:05.955Z,71.61
2022-09-22T23:25:06.281Z,71.74
2022-09-22T23:26:06.016Z,71.70
2022-09-22T23:27:06.067Z,71.42
2022-09-22T23:28:06.077Z,71.42
2022-09-22T23:29:06.300Z,71.22
2022-09-22T23:30:06.137Z,71.55
2022-09-22T23:31:06.521Z,71.32
2022-09-22T23:32:06.203Z,71.42
2022-09-22T23:33:06.232Z,71.36
2022-09-22T23:34:06.265Z,71.12
2022-09-22T23:35:06.292Z,71.16
2022-09-22T23:36:06.329Z,71.06
2022-09-22T23:37:06.629Z,71.36
2022-09-22T23:38:08.938Z,71.03
2022-09-22T23:39:06.608Z,71.03
2022-09-22T23:40:06.552Z,71.12
2022-09-22T23:41:06.484Z,71.16
2022-09-22T23:42:06.511Z,71.36
2022-09-22T23:43:06.543Z,71.36
2022-09-22T23:44:07.238Z,70.74
2022-09-22T23:45:06.627Z,70.84
2022-09-22T23:46:06.734Z,70.39
2022-09-22T23:47:06.677Z,70.68
2022-09-22T23:48:06.712Z,70.64
2022-09-22T23:49:06.745Z,70.64
2022-09-22T23:50:06.767Z,70.45
2022-09-22T23:51:07.095Z,70.54
2022-09-22T23:52:06.831Z,70.68
2022-09-22T23:53:06.860Z,70.54
2022-09-22T23:54:07.101Z,70.64
2022-09-22T23:55:06.940Z,70.64
2022-09-22T23:56:06.952Z,70.74
2022-09-22T23:57:06.985Z,70.64
2022-09-22T23:58:07.270Z,70.74
2022-09-22T23:59:07.051Z,70.74
